Saint Médard d'Aunis (17)                     Janvier 2021                                
  Température (°C) - Abri Young à ventilation mécanique 43502 (moy/5min)  Davis 7714 (moy/1min) Humidité Vent Davis (km/h) PeetBros Instromet Précipitations (mm) Pression (hPa) Divers  
Date Maxi USCRN /5min Mini  USCRN /5min Moy de 1440 relevés Moy (tx+tn)/2 Index chaleur moyen Index chaleur maxi Froid dû au vent moy/5min  Froid dû au vent mini/5min   Amplitude (Tx-Tn) Tx OMM/1min Tn OMM/1min Moy de 1440 relevés Moy (tx+tn)/2 Relative maxi Relative mini Relative moy de 1440 relevés Relative moy (hx+hn)/2 Point de rosée maxi Point de rosée mini Point de rosée moy 1440 relevés Vent moy maxi (10min) Vent  moyen (24h) Direction dominante Rafales (km/h) maxi Direction rafale maxi Rafales moy (24h) Rafales (km/h)   maxi Rafales (km/h)   maxi Total du jour (mm) Durée en heures et dixièmes Intensité maxi sur 1 min (mm/h) Maxi Mini Moy de 1440 relevés Moy (px+pn)/2 Variation Epaisseur neige (cm) Remarques diverses    
01/01/2021 4,5 -2,1 1,64 1,20 1,60 4,6 -1,22 -5,3 6,7 4,5 -2,8 1,49 0,85 97% 91% 94,4% 94,0% 3,5 -2,6 0,84 21,38 11,28 NE 30,6 NNE 14,48 31,2 30 3,6 1,4 12,0 1013,3 1007,3 1009,30 1010,30 6,0   Ciel 2/8 à 8/8, pluie le matin  
02/01/2021 3,7 -1,4 0,66 1,15 0,61 3,6 -2,11 -6,2 5,0 3,7 -1,4 0,53 1,15 96% 83% 92,7% 89,5% 1,5 -2,1 -0,40 18,66 9,22 N 25,7 NE 11,95 28,3 28 0,0 0,0 0,0 1017,8 1013,3 1016,06 1015,55 4,5   Brouillard, ciel entre 0/8 et 8/8 le matin, 0/8 à 8/8 l'après-midi  
03/01/2021 5,3 -0,4 2,46 2,45 2,42 5,3 0,19 -3,6 5,7 5,3 -0,7 2,38 2,30 96% 84% 92,3% 90,0% 4,1 -1,1 1,33 18,34 8,85 SE 27,4 ENE 12,24 27,9 26 0,6 0,3 12,0 1015,5 1010,8 1012,47 1013,15 4,7   Ciel 0/8 à 8/8, pluie faible l'après-midi  
04/01/2021 3,0 -2,2 0,66 0,40 0,62 3,0 -1,71 -5,4 5,1 3,0 -2,2 0,54 0,40 96% 88% 93,8% 92,0% 2,3 -2,7 -0,23 17,70 7,62 NNE 24,1 NE 10,00 24,1 23 0,0 0,0 0,0 1012,8 1010,9 1012,10 1011,85 1,9   Ciel entre 1/8 la nuit et  8/8 ensuite, traces de précipitations  
05/01/2021 3,9 1,4 2,50 2,65 2,49 3,9 0,40 -1,6 2,3 3,9 1,6 2,47 2,75 95% 89% 92,7% 92,0% 2,6 0,7 1,45 15,94 7,73 NNE 20,9 NNE 10,22 21,9 20 0,0 0,0 0,0 1015,6 1012,7 1014,43 1014,15 2,9   Ciel 8/8  
06/01/2021 4,2 0,8 2,49 2,50 2,47 4,2 1,58 -2,9 3,5 4,3 0,8 2,43 2,55 95% 87% 93,1% 91,0% 2,6 0,1 1,47 17,54 4,12 NE 27,4 NE 5,66 28,8 26 0,0 0,0 0,0 1018,8 1015,3 1017,09 1017,05 3,5   Ciel 8/8  
07/01/2021 3,5 -2,2 0,39 0,65 0,35 3,6 -1,30 -4,8 5,8 3,7 -2,5 0,29 0,60 97% 85% 94,4% 91,0% 2,6 -3,0 -0,42 12,58 5,66 NNE 19,3 NNE 7,56 18,9 16 0,2 0,1 12,0 1019,9 1017,6 1018,80 1018,75 2,3   Brouillard givrant, ciel 8/8 le matin, entre 3/8 et 8/8 l'après-midi, 0/8 le soir  
08/01/2021 4,0 -5,3 -1,04 -0,65 -1,09 4,0 -2,95 -8,8 9,4 4,4 -5,6 -1,23 -0,60 96% 84% 93,2% 90,0% 2,1 -5,9 -2,01 20,10 6,41 ENE 32,2 NE 8,96 33,8 * 0,2 0,1 12,0 1020,3 1017,6 1018,83 1018,95 2,7   Ciel 0/8, 8/8 en soirée, brume  
09/01/2021 4,1 -1,5 0,74 1,30 0,63 3,8 -4,60 -7,6 5,4 4,0 -1,6 0,70 1,20 93% 79% 87,9% 86,0% 1,2 -2,4 -1,05 30,58 22,77 NE 49,9 ENE 29,88 53,4 54 0,0 0,0 0,0 1020,3 1017,0 1018,35 1018,65 3,3   Ciel entre 0/8 et 6/8 le matin, 5/8 à 2/8 l'après-midi, 0/8 le soir  
10/01/2021 4,9 -0,8 1,33 2,05 1,17 4,6 -3,55 -6,8 5,8 4,9 -1,0 1,30 1,95 91% 73% 82,9% 82,0% 0,6 -2,8 -1,31 29,00 20,60 NE 43,5 NNE 26,17 45,2 43 0,0 0,0 0,0 1026,0 1019,9 1022,56 1022,95 6,1   Ciel 0/8  
11/01/2021 4,8 -4,2 1,02 0,30 0,95 4,8 -0,90 -7,6 9,0 4,8 -4,3 0,99 0,25 95% 84% 90,9% 89,5% 3,5 -5,0 -0,31 14,02 6,61 NNW 20,9 SW 8,71 20,2 * 0,0 0,0 0,0 1028,4 1025,6 1027,22 1027,00 2,8   Ciel 0/8 le matin, 0/8 à 8/8 ensuite  
12/01/2021 10,7 4,9 8,59 7,80 8,73 10,7 5,00 1,8 5,8 10,7 4,8 8,65 7,75 96% 86% 91,7% 91,0% 9,4 3,5 7,30 35,89 22,12 W 49,9 W 27,04 50,0 50 0,2 0,1 12,0 1027,3 1024,6 1025,72 1025,95 2,7   Ciel entre 7/8 et 8/8  
13/01/2021 10,7 6,8 8,94 8,75 9,17 10,8 6,21 4,1 3,9 10,7 6,9 9,00 8,80 97% 91% 95,9% 94,0% 10,0 6,4 8,31 25,24 16,27 W 35,4 W 19,71 37,6 36 2,6 0,9 12,0 1029,2 1026,1 1027,94 1027,65 3,1   Ciel entre 7/8 et 8/8, averses intermittentes  
14/01/2021 11,2 6,2 8,62 8,70 8,83 11,3 5,29 2,3 4,9 11,2 6,2 8,70 8,70 97% 89% 95,6% 93,0% 10,6 4,6 7,96 38,76 20,69 WSW 57,9 W 25,54 59,7 58 4,2 1,8 12,0 1028,4 1021,6 1024,71 1025,00 6,8   Ciel entre 7/8 et 8/8, pluie l'après-midi, 4/8 en soirée  
15/01/2021 8,7 -0,4 5,13 4,15 5,08 8,6 2,31 -3,5 9,0 8,6 -0,8 5,11 3,90 95% 73% 87,8% 84,0% 6,0 -1,2 3,23 23,95 13,72 N 37,0 NNW 17,40 39,9 39 0,2 0,1 12,0 1031,6 1025,4 1028,79 1028,50 6,2   Ciel 2/8 à 4/8  
16/01/2021 10,5 -1,9 4,37 4,30 4,45 10,7 1,49 -4,1 12,3 10,5 -2,2 4,36 4,15 97% 92% 94,8% 94,5% 9,9 -2,6 3,61 33,80 14,64 SSE 46,7 WSW 18,83 45,8 45 4,0 1,7 12,0 1031,4 1023,1 1027,52 1027,25 8,3   Ciel 8/8, pluie l'après-midi et soir  
17/01/2021 10,4 -0,3 5,73 5,05 5,74 10,4 4,18 -2,2 10,5 10,2 -0,7 5,70 4,75 97% 70% 90,8% 83,5% 9,7 -0,9 4,26 20,74 8,47 NNW 32,2 WNW 11,27 31,4 * 0,6 0,3 12,0 1031,2 1023,4 1028,15 1027,30 7,8   Ciel entre 3/8 et 8/8, 0/8 le soir  
18/01/2021 9,7 -0,7 3,30 4,50 3,26 9,7 2,05 -3,3 10,4 10,6 -0,8 3,38 4,90 97% 75% 91,8% 86,0% 7,0 -1,2 2,04 11,94 5,67 SSE 17,7 S 7,48 17,1 15 0,0 0,0 0,0 1031,1 1025,2 1028,90 1028,15 5,9   Brouillard, ciel entre 3/8 et 6/8 le matin, entre 1/8 et 5/8 l'après-midi  
19/01/2021 10,5 -0,2 4,43 5,15 4,41 10,4 1,63 -4,2 10,6 10,5 -0,2 4,49 5,15 94% 81% 89,8% 87,5% 7,7 -1,1 2,88 19,94 12,09 SSE 27,4 SSE 15,54 27,3 28 0,4 0,2 12,0 1025,2 1008,6 1017,44 1016,90 16,6   Ciel 0/8 le matin, entre 0/8 et 3/8 ensuite  
20/01/2021 12,2 5,1 8,84 8,65 8,73 12,1 4,69 0,3 7,0 12,3 5,2 8,94 8,75 94% 72% 81,6% 83,0% 10,3 3,0 5,82 39,90 26,79 SSE 69,2 SSE 36,01 61,6 63 1,0 0,3 12,0 1008,6 995,8 1000,38 1002,20 12,8   Ciel entre 4/8 et 8/8, pluie le soir  
21/01/2021 13,1 7,9 10,44 10,50 10,57 12,9 6,41 4,4 5,3 13,1 7,8 10,59 10,45 96% 82% 91,0% 89,0% 10,5 7,1 9,02 54,40 30,00 SW 80,5 SW 39,89 80,9 87 9,0 2,8 36,0 1001,9 994,6 998,09 998,25 7,3   Ciel entre 6/8 et 8/8, pluie, averses  
22/01/2021 11,6 4,1 8,05 7,85 8,08 11,6 4,42 0,1 7,5 11,6 4,1 8,32 7,85 95% 77% 89,1% 86,0% 9,7 3,1 6,33 42,64 21,77 SW 62,8 WSW 27,54 60,8 68 11,4 3,8 24,0 1004,8 991,2 998,87 998,00 13,6   Ciel entre 7/8 et 8/8 le matin, pluie, entre 3/8 et 8/8 l'après-midi, averses  
23/01/2021 10,3 2,9 6,37 6,60 6,35 10,2 3,25 -0,2 7,3 10,3 2,7 6,59 6,50 95% 78% 87,9% 86,5% 7,1 2,0 4,46 61,32 21,25 NE 86,9 W 26,26 86,2 90 4,8 1,3 24,0 1003,9 995,7 999,43 999,80 8,2   Ciel entre 2/8 et 8/8, averses, grésil  
24/01/2021 10,4 -0,8 4,50 4,80 4,53 10,3 1,84 -3,7 11,0 10,2 -1,1 4,45 4,55 96% 84% 93,2% 90,0% 8,9 -1,3 3,48 34,60 12,90 W 51,5 WNW 15,67 54,8 54 8,0 1,6 36,0 1006,7 1002,4 1004,81 1004,55 4,3   Ciel entre 2/8 et 8/8, averses  
25/01/2021 7,0 -2,3 2,65 2,35 2,57 6,8 0,76 -4,5 9,3 7,0 -2,8 2,50 2,10 97% 69% 88,7% 83,0% 3,7 -3,0 0,89 16,74 7,96 N 24,1 NNW 10,09 25,7 25 0,2 0,1 12,0 1022,3 1006,7 1013,13 1014,50 15,6   Ciel entre 2/8 et 6/8  
26/01/2021 5,7 -3,7 1,76 1,00 1,64 5,4 -1,10 -7,2 9,4 5,6 -4,4 1,63 0,60 96% 74% 87,1% 85,0% 3,2 -4,4 -0,23 22,98 11,26 SE 32,2 SSE 14,64 30,4 34 0,0 0,0 0,0 1024,0 1018,1 1021,92 1021,05 5,9   Ciel entre 7/8 et 8/8  
27/01/2021 12,0 3,9 9,82 7,95 10,03 12,1 7,12 0,5 7,8 12,1 4,1 9,92 8,10 98% 94% 97,3% 96,0% 11,6 3,2 9,42 33,48 17,28 WSW 48,3 W 20,67 47,6 47 8,6 2,0 12,0 1020,7 1017,6 1018,99 1019,15 3,1   Ciel 4/8 à 8/8, brume, pluie  
28/01/2021 12,3 11,2 11,78 11,60 11,95 12,3 7,72 6,8 1,0 12,3 11,3 11,87 11,80 98% 96% 97,1% 97,0% 11,7 10,9 11,32 41,52 29,94 WSW 59,5 WSW 37,52 61,4 66 21,6 5,9 24,0 1018,8 1012,6 1015,78 1015,70 6,2   Ciel 8/8, pluie  
29/01/2021 12,9 9,7 11,06 11,30 11,25 12,8 7,64 5,7 3,1 13,1 9,7 11,17 11,40 98% 89% 94,5% 93,5% 11,5 8,9 10,21 38,61 23,96 WSW 53,1 W 29,50 54,1 55 4,0 1,6 12,0 1014,9 1007,6 1012,91 1011,25 7,3   Ciel entre 6/8 et 8/8, pluie le matin et le soir  
30/01/2021 13,0 9,8 11,05 11,40 11,21 12,9 7,20 4,7 3,2 13,2 9,8 11,13 11,50 97% 85% 93,4% 91,0% 11,4 8,5 10,00 39,92 27,28 WSW 62,8 WSW 35,09 65,7 66 9,8 3,7 12,0 1007,6 995,0 999,78 1001,30 12,6   Ciel entre 6/8 et 8/8, pluie, averses  
31/01/2021 11,8 9,8 10,74 10,80 10,97 11,9 6,99 5,7 2,0 11,8 9,8 10,80 10,80 97% 92% 96,0% 94,5% 11,3 9,2 10,12 47,16 26,24 WSW 62,8 WSW 32,17 63,1 65 7,2 2,9 12,0 1002,6 993,4 997,80 998,00 9,2   Ciel entre 7/8 et 8/8, pluie, averses  
  Température (°C) - Abri Young à ventilation mécanique 43502 (moy/5min)  Davis 7714 (moy/1min) Humidité Vent Davis (km/h) PeetBros Instromet Précipitations (mm) Pression (hPa) Divers  
PT1000 Maxi USCRN /5min Mini  USCRN /5min Moy de 1440 relevés Moy (tx+tn)/2 Index chaleur moyen Index chaleur maxi Froid dû au vent moy/5min  Froid dû au vent mini/5min   Amplitude (Tx-Tn) Tx OMM/1min Tn OMM/1min Moy de 1440 relevés Moy (tx+tn)/2 Relative maxi Relative mini Relative moy de 1440 relevés Relative moy (hx+hn)/2 Point de rosée maxi Point de rosée mini Point de rosée moy 1440 relevés Vent moy maxi (10min) Vent  moyen (24h) Direction dominante Rafales (km/h) maxi Direction rafale maxi Rafales moy (24h) Rafales (km/h)   maxi Rafales (km/h)   maxi Total du jour (mm) Durée en heures et dixièmes Intensité maxi sur 1 min (mm/h) Maxi Mini Moy de 1440 relevés Moy (px+pn)/2 Variation Epaisseur neige (cm) Remarques diverses  
Maxi 13,1 11,2 11,78 11,60 11,95 12,9 7,72 6,8 12,3 13,2 11,3 11,87 11,80 98% 96% 97,3% 97,0% 11,7 10,9 11,32 61,32 30,00 WSW 86,9 W 39,89 86,2 90 21,6 5,9 36,0 1031,6 1026,1 1028,90 1028,50 16,6 0,0    
Mini 3,0 -5,3 -1,04 -0,65 -1,09 3,0 -4,60 -8,8 1,0 3,0 -5,6 -1,23 -0,60 91% 69% 81,6% 82,0% 0,6 -5,9 -2,01 11,94 4,12   17,7   5,66 17,1 15       1001,9 991,2 997,80 998,00 1,9      
Moy 8,41 1,75 5,13 5,07 5,15 8,36 2,22 -1,84 6,61 8,45 1,60 5,14 5,03 95,9% 83,1% 91,7% 89,5% 6,70 0,90 3,86 29,01 15,52   42,57   19,80 43,06 44,9       1018,74 1012,15 1015,43 1015,45 6,59      
Total                                                         102,4 32,7             0,0    
   
Observations    
Jours Rafales >= 36,0 km/h Rafales >= 57,6 km/h Rafales >= 75,6 km/h Rafales >= 100,8 km/h Précipi. >= 0,1 mm Précipi. >= 1,0 mm Précipi. >= 5,0 mm Précipi. >= 10,0 mm Tx <= 0 Tx <= -5 Tx <= -10 Tx >= 20 Tx >= 25 Tx >= 30 Tx >= 35 Tx >= 40 Tn <= 0 Tn <= -5 Tn <= -10 Tn <= -15 Tn <= -20 T moy <= 0 T moy <=     -5 T moy <=     -10 T moy >= 20 T moy >= 25 T moy >= 30 Grêle Grésil Brouillard Brume Orage Neige        
01/01/2021 0 0 0 0 1 1 0 0 0 0 0 0 0 0 0 0 1 0 0 0 0 0 0 0 0 0 0 0 0 0 0 0 0    
02/01/2021 0 0 0 0 0 0 0 0 0 0 0 0 0 0 0 0 1 0 0 0 0 0 0 0 0 0 0 0 0 1 0 0 0    
03/01/2021 0 0 0 0 1 0 0 0 0 0 0 0 0 0 0 0 1 0 0 0 0 0 0 0 0 0 0 0 0 0 0 0 0    
04/01/2021 0 0 0 0 0 0 0 0 0 0 0 0 0 0 0 0 1 0 0 0 0 0 0 0 0 0 0 0 0 0 0 0 0    
05/01/2021 0 0 0 0 0 0 0 0 0 0 0 0 0 0 0 0 0 0 0 0 0 0 0 0 0 0 0 0 0 0 0 0 0    
06/01/2021 0 0 0 0 0 0 0 0 0 0 0 0 0 0 0 0 0 0 0 0 0 0 0 0 0 0 0 0 0 0 0 0 0    
07/01/2021 0 0 0 0 1 0 0 0 0 0 0 0 0 0 0 0 1 0 0 0 0 0 0 0 0 0 0 0 0 1 0 0 0    
08/01/2021 0 0 0 0 1 0 0 0 0 0 0 0 0 0 0 0 1 1 0 0 0 1 0 0 0 0 0 0 0 0 1 0 0    
09/01/2021 1 0 0 0 0 0 0 0 0 0 0 0 0 0 0 0 1 0 0 0 0 0 0 0 0 0 0 0 0 0 0 0 0    
10/01/2021 1 0 0 0 0 0 0 0 0 0 0 0 0 0 0 0 1 0 0 0 0 0 0 0 0 0 0 0 0 0 0 0 0    
11/01/2021 0 0 0 0 0 0 0 0 0 0 0 0 0 0 0 0 1 0 0 0 0 0 0 0 0 0 0 0 0 0 0 0 0    
12/01/2021 1 0 0 0 1 0 0 0 0 0 0 0 0 0 0 0 0 0 0 0 0 0 0 0 0 0 0 0 0 0 0 0 0    
13/01/2021 0 0 0 0 1 1 0 0 0 0 0 0 0 0 0 0 0 0 0 0 0 0 0 0 0 0 0 0 0 0 0 0 0    
14/01/2021 1 1 0 0 1 1 0 0 0 0 0 0 0 0 0 0 0 0 0 0 0 0 0 0 0 0 0 0 0 0 0 0 0    
15/01/2021 1 0 0 0 1 0 0 0 0 0 0 0 0 0 0 0 1 0 0 0 0 0 0 0 0 0 0 0 0 0 0 0 0    
16/01/2021 1 0 0 0 1 1 0 0 0 0 0 0 0 0 0 0 1 0 0 0 0 0 0 0 0 0 0 0 0 0 0 0 0    
17/01/2021 0 0 0 0 1 0 0 0 0 0 0 0 0 0 0 0 1 0 0 0 0 0 0 0 0 0 0 0 0 0 0 0 0    
18/01/2021 0 0 0 0 0 0 0 0 0 0 0 0 0 0 0 0 1 0 0 0 0 0 0 0 0 0 0 0 0 1 0 0 0    
19/01/2021 0 0 0 0 1 0 0 0 0 0 0 0 0 0 0 0 1 0 0 0 0 0 0 0 0 0 0 0 0 0 0 0 0    
20/01/2021 1 1 0 0 1 1 0 0 0 0 0 0 0 0 0 0 0 0 0 0 0 0 0 0 0 0 0 0 0 0 0 0 0    
21/01/2021 1 1 1 0 1 1 1 0 0 0 0 0 0 0 0 0 0 0 0 0 0 0 0 0 0 0 0 0 0 0 0 0 0    
22/01/2021 1 1 0 0 1 1 1 1 0 0 0 0 0 0 0 0 0 0 0 0 0 0 0 0 0 0 0 0 0 0 0 0 0    
23/01/2021 1 1 1 0 1 1 0 0 0 0 0 0 0 0 0 0 0 0 0 0 0 0 0 0 0 0 0 0 1 0 0 0 0    
24/01/2021 1 0 0 0 1 1 1 0 0 0 0 0 0 0 0 0 1 0 0 0 0 0 0 0 0 0 0 0 0 0 0 0 0    
25/01/2021 0 0 0 0 1 0 0 0 0 0 0 0 0 0 0 0 1 0 0 0 0 0 0 0 0 0 0 0 0 0 0 0 0    
26/01/2021 0 0 0 0 0 0 0 0 0 0 0 0 0 0 0 0 1 0 0 0 0 0 0 0 0 0 0 0 0 0 0 0 0    
27/01/2021 1 0 0 0 1 1 1 0 0 0 0 0 0 0 0 0 0 0 0 0 0 0 0 0 0 0 0 0 0 0 1 0 0    
28/01/2021 1 1 0 0 1 1 1 1 0 0 0 0 0 0 0 0 0 0 0 0 0 0 0 0 0 0 0 0 0 0 0 0 0    
29/01/2021 1 0 0 0 1 1 0 0 0 0 0 0 0 0 0 0 0 0 0 0 0 0 0 0 0 0 0 0 0 0 0 0 0        
30/01/2021 1 1 0 0 1 1 1 0 0 0 0 0 0 0 0 0 0 0 0 0 0 0 0 0 0 0 0 0 0 0 0 0 0    
31/01/2021 1 1 0 0 1 1 1 0 0 0 0 0 0 0 0 0 0 0 0 0 0 0 0 0 0 0 0 0 0 0 0 0 0    
   
  Rafales >= 36,0 km/h Rafales >= 57,6 km/h Rafales >= 75,6 km/h Rafales >= 100,8 km/h Précipi. >= 0,1 mm Précipi. >= 1,0 mm Précipi. >= 5,0 mm Précipi. >= 10,0 mm Tx <=0 Tx <= -5 Tx <= -10 Tx >= 20 Tx >= 25 Tx >= 30 Tx >= 35 Tx >= 40 Tn <= 0 Tn <= -5 Tn <= -10 Tn <= -15 Tn <= -20 T moy <= 0 T moy <=  -5 T moy <=  -10 T moy >= 20 T moy >= 25 T moy >= 30 Grêle Grésil Brouillard Brume Orage Neige        
Total 16 8 2 0 22 14 7 2 0 0 0 0 0 0 0 0 17 1 0 0 0 1 0 0 0 0 0 0 1 3 2 0 0